Time;durP1;ratioP1;P1;durP2;ratioP2;P2;SDS_P1;SDS_P2;PMS_P1;PMS_P2;Temp;Humidity;BMP_temperature;BMP_pressure;BME280_temperature;BME280_humidity;BME280_pressure;Samples;Min_cycle;Max_cycle;Signal;HPM_P1;HPM_P2
2023/12/16 00:01:27;;;;;;;18.70;6.38;;;;;;;10.07;84.72;102948.97;8274655;28;20202;-57
2023/12/16 00:05:28;;;;;;;11.63;4.90;;;;;;;10.13;83.85;102948.66;8244870;28;20045;-55
2023/12/16 00:09:29;;;;;;;19.85;6.88;;;;;;;10.16;83.85;102953.03;8222231;28;20512;-56
2023/12/16 00:13:29;;;;;;;17.67;5.35;;;;;;;10.19;83.09;102953.75;8224175;28;20169;-56
2023/12/16 00:17:30;;;;;;;19.05;5.88;;;;;;;10.25;82.77;102953.44;8222541;28;20038;-58
2023/12/16 00:21:31;;;;;;;20.15;5.70;;;;;;;10.20;83.38;102944.69;8219438;28;20042;-57
2023/12/16 00:25:31;;;;;;;17.95;5.93;;;;;;;10.14;83.94;102950.41;8220129;28;20342;-56
2023/12/16 00:29:31;;;;;;;18.70;5.93;;;;;;;10.11;83.66;102950.56;8268249;28;20030;-58
2023/12/16 00:33:32;;;;;;;21.17;6.03;;;;;;;10.04;84.47;102949.09;8277763;28;20476;-59
2023/12/16 00:37:33;;;;;;;19.30;5.55;;;;;;;10.01;85.17;102943.84;8240913;28;20053;-58
2023/12/16 00:41:33;;;;;;;25.05;6.35;;;;;;;9.91;85.73;102942.53;8219443;28;20718;-57
2023/12/16 00:45:34;;;;;;;23.92;6.05;;;;;;;9.85;87.28;102932.03;8218895;28;20405;-58
2023/12/16 00:49:34;;;;;;;18.92;5.13;;;;;;;9.80;87.57;102931.41;8243725;28;20085;-56
2023/12/16 00:53:35;;;;;;;25.90;6.30;;;;;;;9.77;87.67;102935.16;8210820;28;20065;-58
2023/12/16 00:57:35;;;;;;;13.80;5.95;;;;;;;9.77;89.06;102934.25;8177236;28;20112;-57
2023/12/16 01:01:36;;;;;;;18.45;5.88;;;;;;;9.75;89.48;102936.16;8179468;28;20132;-57
2023/12/16 01:05:37;;;;;;;18.77;5.85;;;;;;;9.69;90.14;102931.94;8178698;28;20167;-58
2023/12/16 01:09:38;;;;;;;23.42;6.15;;;;;;;9.70;90.12;102939.09;8176686;28;20212;-57
2023/12/16 01:13:39;;;;;;;21.48;5.85;;;;;;;9.82;87.55;102921.38;8178471;28;20043;-56
2023/12/16 01:17:39;;;;;;;19.98;6.57;;;;;;;9.94;85.23;102928.88;8206635;28;20762;-56
2023/12/16 01:21:41;;;;;;;27.50;6.20;;;;;;;10.09;84.30;102927.28;8206990;28;20277;-57
2023/12/16 01:25:41;;;;;;;23.95;5.70;;;;;;;10.11;84.65;102942.44;8219835;28;20378;-58
2023/12/16 01:29:42;;;;;;;18.08;5.35;;;;;;;10.10;83.94;102932.59;8221241;28;20042;-57
2023/12/16 01:33:42;;;;;;;19.00;5.70;;;;;;;10.15;82.85;102945.88;8220560;28;20270;-57
2023/12/16 01:37:43;;;;;;;18.00;5.50;;;;;;;10.14;82.38;102949.50;8221517;28;20065;-57
2023/12/16 01:41:43;;;;;;;16.75;5.85;;;;;;;10.17;82.34;102960.16;8217762;28;20136;-56
2023/12/16 01:45:44;;;;;;;18.60;5.88;;;;;;;10.12;83.41;102963.09;8217590;28;20267;-56
2023/12/16 01:49:44;;;;;;;19.05;5.38;;;;;;;10.03;83.20;102963.53;8272633;28;20042;-56
2023/12/16 01:53:46;;;;;;;19.17;5.55;;;;;;;10.04;83.22;102968.00;8274332;28;20038;-56
2023/12/16 01:57:46;;;;;;;17.88;5.03;;;;;;;10.02;83.67;102964.50;8274269;28;20061;-55
2023/12/16 02:01:54;;;;;;;16.90;5.05;;;;;;;10.03;82.18;102963.53;8270774;28;20050;-57
2023/12/16 02:05:57;;;;;;;18.02;5.55;;;;;;;10.06;81.93;102979.59;8275467;28;20417;-56
2023/12/16 02:09:57;;;;;;;17.20;4.65;;;;;;;10.05;82.00;102980.56;8273865;28;20044;-55
2023/12/16 02:13:58;;;;;;;14.43;4.82;;;;;;;10.07;81.64;102973.28;8274105;28;20038;-56
2023/12/16 02:17:58;;;;;;;18.40;4.72;;;;;;;10.09;81.06;102968.66;8273767;28;20044;-57
2023/12/16 02:21:59;;;;;;;17.65;5.20;;;;;;;10.08;82.23;102969.63;8275149;28;20042;-56
2023/12/16 02:26:00;;;;;;;14.27;3.97;;;;;;;10.03;81.90;102975.22;8273343;28;20100;-57
2023/12/16 02:30:01;;;;;;;11.48;4.25;;;;;;;9.98;82.06;102977.28;8218855;28;20096;-54
2023/12/16 02:34:01;;;;;;;28.65;5.85;;;;;;;10.01;82.37;102965.47;8220576;28;20235;-56
2023/12/16 02:38:02;;;;;;;14.25;4.05;;;;;;;9.96;80.80;102967.50;8220007;28;20535;-56
2023/12/16 02:42:02;;;;;;;12.77;4.47;;;;;;;10.01;80.28;102970.88;8225415;28;20058;-54
2023/12/16 02:46:03;;;;;;;12.32;4.40;;;;;;;10.04;79.59;102965.31;8245714;28;20038;-58
2023/12/16 02:50:06;;;;;;;14.90;4.03;;;;;;;10.03;79.37;102963.53;8242628;28;20285;-55
2023/12/16 02:54:06;;;;;;;16.17;5.38;;;;;;;9.99;80.03;102964.66;8231849;28;20042;-56
2023/12/16 02:58:07;;;;;;;17.00;5.15;;;;;;;9.88;81.32;102965.19;8212332;28;20077;-57
2023/12/16 03:02:07;;;;;;;16.55;5.10;;;;;;;9.89;82.25;102971.47;8180306;28;20263;-58
2023/12/16 03:06:08;;;;;;;16.13;4.88;;;;;;;9.91;81.78;102964.16;8177305;28;20042;-57
2023/12/16 03:10:09;;;;;;;19.67;4.70;;;;;;;9.90;81.67;102962.41;8179361;28;20243;-58
2023/12/16 03:14:09;;;;;;;17.55;5.20;;;;;;;9.91;80.39;102969.56;8196912;28;20042;-57
2023/12/16 03:18:10;;;;;;;15.18;4.72;;;;;;;9.92;80.11;102957.81;8182043;28;20056;-58
2023/12/16 03:22:10;;;;;;;15.35;5.00;;;;;;;9.97;80.02;102963.84;8178055;28;20085;-56
2023/12/16 03:26:11;;;;;;;16.60;4.40;;;;;;;10.01;79.07;102954.66;8199408;28;20120;-56
2023/12/16 03:30:11;;;;;;;16.98;4.10;;;;;;;10.03;78.79;102960.81;8274897;28;20073;-57
2023/12/16 03:34:12;;;;;;;20.85;4.85;;;;;;;10.09;78.06;102951.59;8222263;28;20088;-55
2023/12/16 03:38:12;;;;;;;18.38;4.97;;;;;;;10.13;77.76;102958.59;8222634;28;20241;-57
2023/12/16 03:42:12;;;;;;;15.23;4.05;;;;;;;10.10;78.55;102958.75;8223291;28;20350;-57
2023/12/16 03:46:13;;;;;;;14.82;4.22;;;;;;;10.02;77.91;102942.88;8251593;28;20042;-55
2023/12/16 03:50:13;;;;;;;15.55;4.60;;;;;;;10.00;77.41;102948.34;8257055;28;20317;-57
2023/12/16 03:54:14;;;;;;;14.18;3.78;;;;;;;10.04;78.07;102943.69;8218395;28;20033;-56
2023/12/16 03:58:14;;;;;;;16.50;4.10;;;;;;;10.07;78.59;102943.56;8224289;28;20128;-56
2023/12/16 04:02:15;;;;;;;13.80;3.90;;;;;;;10.01;78.50;102938.44;8224425;28;20402;-57
2023/12/16 04:06:16;;;;;;;16.40;4.13;;;;;;;10.01;77.54;102938.44;8221130;28;20324;-57
2023/12/16 04:10:16;;;;;;;18.92;4.65;;;;;;;10.00;78.70;102939.38;8221543;28;20050;-55
2023/12/16 04:14:17;;;;;;;8.90;3.95;;;;;;;9.96;78.01;102940.47;8253922;28;20514;-56
2023/12/16 04:18:17;;;;;;;13.07;3.38;;;;;;;9.91;78.57;102938.00;8227973;28;20093;-56
2023/12/16 04:22:18;;;;;;;12.75;4.25;;;;;;;9.87;78.78;102928.31;8221488;28;20121;-55
2023/12/16 04:26:19;;;;;;;13.50;3.67;;;;;;;9.90;79.01;102935.38;8213737;28;20277;-57
2023/12/16 04:30:19;;;;;;;15.13;4.07;;;;;;;9.83;79.47;102936.66;8207664;28;20117;-55
2023/12/16 04:34:20;;;;;;;7.63;3.05;;;;;;;9.81;79.67;102930.44;8179451;28;20431;-55
2023/12/16 04:38:20;;;;;;;13.23;3.53;;;;;;;9.79;79.84;102940.47;8177756;28;20507;-56
2023/12/16 04:42:21;;;;;;;8.77;3.30;;;;;;;9.86;78.53;102944.59;8178282;28;20151;-56
2023/12/16 04:46:22;;;;;;;10.65;2.83;;;;;;;9.92;78.18;102955.97;8196367;28;20515;-56
2023/12/16 04:50:22;;;;;;;12.95;2.83;;;;;;;9.92;79.04;102955.97;8176916;28;20774;-55
2023/12/16 04:54:22;;;;;;;11.85;3.28;;;;;;;9.98;78.04;102966.47;8179881;28;20082;-56
2023/12/16 04:58:23;;;;;;;15.25;3.42;;;;;;;9.92;78.96;102968.63;8221438;28;20030;-56
2023/12/16 05:02:23;;;;;;;14.40;2.85;;;;;;;9.99;78.95;102978.16;8247197;28;20355;-55
2023/12/16 05:06:24;;;;;;;11.50;2.65;;;;;;;9.82;79.59;102964.59;8219241;28;20349;-56
2023/12/16 05:10:24;;;;;;;13.77;2.72;;;;;;;9.79;79.75;102964.78;8218690;28;20129;-56
2023/12/16 05:14:25;;;;;;;13.00;2.67;;;;;;;9.83;79.76;102964.53;8224313;28;20146;-58
2023/12/16 05:18:25;;;;;;;11.00;3.05;;;;;;;9.79;79.60;102962.09;8263450;28;20449;-56
2023/12/16 05:22:26;;;;;;;17.23;3.30;;;;;;;9.80;79.53;102955.72;8216491;28;21448;-56
2023/12/16 05:26:26;;;;;;;9.98;2.35;;;;;;;9.87;79.33;102957.16;8220294;28;20191;-57
2023/12/16 05:30:27;;;;;;;10.95;2.92;;;;;;;9.77;79.61;102967.56;8222775;28;20041;-57
2023/12/16 05:34:27;;;;;;;19.50;3.17;;;;;;;9.81;79.04;102957.47;8216327;28;20042;-56
2023/12/16 05:38:28;;;;;;;11.05;2.80;;;;;;;9.85;78.81;102959.03;8214853;28;20108;-56
2023/12/16 05:42:28;;;;;;;10.73;3.00;;;;;;;9.84;79.01;102960.91;8217700;28;20100;-56
2023/12/16 05:46:28;;;;;;;6.32;2.40;;;;;;;9.87;78.55;102957.16;8233940;28;20091;-55
2023/12/16 05:50:29;;;;;;;14.65;3.42;;;;;;;9.82;79.21;102961.91;8271014;28;20088;-56
2023/12/16 05:54:29;;;;;;;20.05;3.10;;;;;;;9.78;79.61;102952.22;8270089;28;20046;-56
2023/12/16 05:58:30;;;;;;;12.13;2.85;;;;;;;9.81;79.54;102954.75;8274818;28;20096;-57
2023/12/16 06:02:30;;;;;;;14.00;3.80;;;;;;;9.78;79.64;102968.41;8253121;28;20199;-58
2023/12/16 06:06:30;;;;;;;12.35;3.35;;;;;;;9.82;79.28;102970.00;8218767;28;20107;-58
2023/12/16 06:10:31;;;;;;;13.73;3.08;;;;;;;9.82;80.25;102967.31;8232939;28;20062;-56
2023/12/16 06:14:31;;;;;;;13.10;2.80;;;;;;;9.80;79.57;102967.38;8275066;28;20563;-56
2023/12/16 06:18:32;;;;;;;8.32;2.85;;;;;;;9.84;79.72;102970.81;8262142;28;20105;-56
2023/12/16 06:22:33;;;;;;;12.23;2.95;;;;;;;9.82;79.50;102979.00;8269556;28;20153;-56
2023/12/16 06:26:33;;;;;;;13.20;2.95;;;;;;;9.81;79.83;102984.47;8273687;28;20042;-56
2023/12/16 06:30:34;;;;;;;15.43;3.08;;;;;;;9.86;79.87;102966.22;8276365;28;20496;-56
2023/12/16 06:34:35;;;;;;;10.45;2.78;;;;;;;9.84;80.07;102973.53;8273330;28;20046;-56
2023/12/16 06:38:35;;;;;;;17.23;3.25;;;;;;;9.82;80.10;102975.41;8273049;28;20033;-56
2023/12/16 06:42:36;;;;;;;16.23;3.63;;;;;;;9.76;80.88;102971.19;8270644;28;20034;-56
2023/12/16 06:46:36;;;;;;;11.88;2.60;;;;;;;9.77;81.00;102972.09;8275625;28;20543;-55
2023/12/16 06:50:37;;;;;;;14.25;3.13;;;;;;;9.73;81.26;102975.91;8267600;28;20052;-57
2023/12/16 06:54:37;;;;;;;15.15;3.20;;;;;;;9.71;81.17;102970.56;8272799;28;20069;-56
2023/12/16 06:58:38;;;;;;;16.50;2.63;;;;;;;9.63;81.76;102969.16;8273256;28;20415;-57
2023/12/16 07:02:41;;;;;;;10.48;2.85;;;;;;;9.65;82.12;102978.09;8271877;28;20322;-55
2023/12/16 07:06:42;;;;;;;9.10;2.50;;;;;;;9.63;82.33;102979.97;8268872;28;20053;-56
2023/12/16 07:10:43;;;;;;;15.25;2.78;;;;;;;9.63;83.13;102972.75;8272739;28;20034;-57
2023/12/16 07:14:43;;;;;;;9.80;3.35;;;;;;;9.64;82.41;102977.19;8255664;28;20119;-56
2023/12/16 07:18:44;;;;;;;19.30;3.63;;;;;;;9.64;82.50;102982.59;8237335;28;20038;-56
2023/12/16 07:22:44;;;;;;;11.85;3.30;;;;;;;9.61;82.81;102992.69;8237070;28;20030;-55
2023/12/16 07:26:45;;;;;;;13.30;2.92;;;;;;;9.66;84.02;103001.44;8241877;28;20129;-56
2023/12/16 07:30:45;;;;;;;10.43;3.10;;;;;;;9.67;83.08;103000.50;8244977;28;20401;-56
2023/12/16 07:34:49;;;;;;;9.48;2.08;;;;;;;9.65;82.78;103010.50;8241730;28;20416;-55
2023/12/16 07:38:50;;;;;;;10.90;2.60;;;;;;;9.59;82.81;103022.47;8258282;28;20338;-57
2023/12/16 07:42:50;;;;;;;18.48;3.85;;;;;;;9.55;83.15;103028.09;8274432;28;20042;-56
2023/12/16 07:46:50;;;;;;;18.65;3.45;;;;;;;9.51;83.65;103023.75;8270753;28;20038;-57
2023/12/16 07:50:53;;;;;;;17.63;3.25;;;;;;;9.46;83.36;103021.28;8273971;28;20049;-56
2023/12/16 07:54:54;;;;;;;12.63;2.55;;;;;;;9.51;83.74;103023.75;8266131;28;20066;-57
2023/12/16 07:58:57;;;;;;;15.57;3.40;;;;;;;9.55;83.75;103017.28;8276391;28;20057;-57
2023/12/16 08:02:57;;;;;;;14.85;3.72;;;;;;;9.60;84.04;103023.34;8276115;28;20141;-56
2023/12/16 08:06:58;;;;;;;18.33;3.90;;;;;;;9.61;83.37;103019.72;8276385;28;20050;-57
2023/12/16 08:10:58;;;;;;;30.20;7.85;;;;;;;9.67;83.06;103019.41;8270023;28;20656;-57
2023/12/16 08:14:59;;;;;;;40.25;11.23;;;;;;;9.68;83.18;103015.75;8270087;28;20423;-55
2023/12/16 08:18:59;;;;;;;42.67;13.02;;;;;;;9.69;83.08;103022.91;8275397;28;20503;-56
2023/12/16 08:23:02;;;;;;;22.90;5.35;;;;;;;9.74;83.18;103028.97;8269454;28;20439;-55
2023/12/16 08:27:02;;;;;;;15.30;3.03;;;;;;;9.80;82.23;103026.81;8271215;28;20096;-56
2023/12/16 08:31:03;;;;;;;12.63;2.63;;;;;;;9.88;82.03;103021.03;8275590;28;20034;-56
2023/12/16 08:35:05;;;;;;;15.02;3.13;;;;;;;10.28;80.55;103018.13;8271344;28;20040;-56
2023/12/16 08:39:06;;;;;;;8.95;2.85;;;;;;;11.09;77.56;103019.22;8272720;28;20484;-56
2023/12/16 08:43:06;;;;;;;9.82;2.20;;;;;;;11.72;74.90;103021.09;8274701;28;20458;-57
2023/12/16 08:47:06;;;;;;;12.63;3.00;;;;;;;11.64;74.28;103020.69;8269255;28;20061;-57
2023/12/16 08:51:07;;;;;;;10.50;3.38;;;;;;;10.78;76.86;103035.34;8274695;28;20077;-56
2023/12/16 08:55:07;;;;;;;12.02;2.58;;;;;;;10.30;79.12;103043.28;8264364;28;20091;-56
2023/12/16 08:59:08;;;;;;;16.25;3.05;;;;;;;11.90;74.51;103055.31;8270746;28;20371;-55
2023/12/16 09:03:08;;;;;;;12.25;2.90;;;;;;;13.06;69.42;103058.34;8274359;28;20423;-58
2023/12/16 09:07:09;;;;;;;13.48;2.50;;;;;;;13.88;67.02;103063.84;8271469;28;20100;-56
2023/12/16 09:11:10;;;;;;;18.40;4.13;;;;;;;14.43;64.56;103062.97;8271195;28;20064;-57
2023/12/16 09:15:10;;;;;;;17.90;5.53;;;;;;;14.61;63.82;103051.66;8272406;28;20041;-55
2023/12/16 09:19:11;;;;;;;12.63;4.55;;;;;;;14.53;64.00;103054.06;8268079;28;20038;-56
2023/12/16 09:23:12;;;;;;;12.75;4.05;;;;;;;14.73;63.47;103061.72;8268316;28;20038;-57
2023/12/16 09:27:12;;;;;;;12.15;3.15;;;;;;;14.85;63.76;103066.31;8273356;28;20129;-56
2023/12/16 09:31:13;;;;;;;9.23;1.60;;;;;;;14.34;64.62;103074.47;8270704;28;20443;-56
2023/12/16 09:35:14;;;;;;;9.68;2.40;;;;;;;12.97;67.89;103083.31;8270032;28;20092;-56
2023/12/16 09:39:14;;;;;;;12.57;2.70;;;;;;;12.13;70.33;103091.09;8270314;28;20524;-56
2023/12/16 09:43:16;;;;;;;7.68;1.77;;;;;;;11.65;73.95;103103.72;8265669;28;20073;-57
2023/12/16 09:47:17;;;;;;;9.30;2.78;;;;;;;11.46;74.59;103097.53;8261493;28;20042;-56
2023/12/16 09:51:17;;;;;;;12.02;3.45;;;;;;;11.37;75.26;103100.72;8263780;28;20045;-56
2023/12/16 09:55:18;;;;;;;11.00;3.17;;;;;;;11.37;76.41;103103.44;8261010;28;20503;-57
2023/12/16 09:59:20;;;;;;;14.48;2.88;;;;;;;11.32;76.78;103091.97;8269552;28;20397;-56
2023/12/16 10:03:21;;;;;;;15.82;4.07;;;;;;;11.43;76.13;103097.69;8273228;28;20097;-57
2023/12/16 10:07:22;;;;;;;12.52;2.80;;;;;;;11.42;76.47;103093.25;8271293;28;20049;-56
2023/12/16 10:11:23;;;;;;;11.10;2.25;;;;;;;11.49;76.75;103085.63;8271450;28;20492;-55
2023/12/16 10:15:33;;;;;;;10.77;2.55;;;;;;;11.61;76.58;103077.72;8270542;28;20522;-55
2023/12/16 10:19:33;;;;;;;12.18;2.45;;;;;;;11.66;76.82;103078.38;8267460;28;20484;-55
2023/12/16 10:23:37;;;;;;;14.93;3.10;;;;;;;11.76;77.31;103087.75;8268400;28;20378;-55
2023/12/16 10:27:41;;;;;;;13.15;3.00;;;;;;;11.78;76.18;103074.13;8270600;28;20038;-56
2023/12/16 10:31:41;;;;;;;;;;;;;;;11.90;76.24;103078.84;8271572;28;20039;-55
2023/12/16 10:35:42;;;;;;;9.05;2.35;;;;;;;11.86;75.80;103066.41;8272926;28;19929;-56
2023/12/16 10:39:43;;;;;;;13.13;2.53;;;;;;;11.89;76.20;103061.69;8270678;28;20415;-55
2023/12/16 10:43:43;;;;;;;13.52;1.95;;;;;;;12.00;76.05;103069.22;8271973;28;20039;-56
2023/12/16 10:47:48;;;;;;;12.88;2.30;;;;;;;12.04;76.42;103065.34;8271804;28;20072;-56
2023/12/16 10:51:51;;;;;;;;;;;;;;;12.15;76.81;103060.22;8271039;28;20046;-54
2023/12/16 10:55:58;;;;;;;14.35;2.92;;;;;;;12.24;75.87;103045.22;8269908;28;19918;-54
2023/12/16 11:00:04;;;;;;;16.70;3.20;;;;;;;12.31;76.91;103057.47;8269741;28;20504;-55
2023/12/16 11:04:11;;;;;;;8.70;1.95;;;;;;;12.55;75.53;103050.59;8272586;28;20173;-54
2023/12/16 11:08:12;;;;;;;10.38;2.33;;;;;;;12.78;76.01;103052.81;8266681;28;20424;-55
2023/12/16 11:12:13;;;;;;;11.95;1.95;;;;;;;12.93;75.73;103038.31;8274391;28;20046;-55
2023/12/16 11:16:27;;;;;;;11.73;3.05;;;;;;;13.24;74.88;103025.44;8272724;28;20439;-55
2023/12/16 11:20:37;;;;;;;8.95;2.13;;;;;;;13.67;73.65;103010.84;8260041;28;20046;-55
2023/12/16 11:24:40;;;;;;;17.60;2.78;;;;;;;14.70;69.46;103002.03;8266595;28;20048;-56
2023/12/16 11:28:40;;;;;;;12.52;2.08;;;;;;;15.10;67.28;102995.50;8274892;28;20046;-56
2023/12/16 11:32:44;;;;;;;13.20;1.70;;;;;;;15.67;66.14;102994.06;8273714;28;20527;-56
2023/12/16 11:36:47;;;;;;;8.73;1.77;;;;;;;15.73;65.56;102999.06;8272526;28;20042;-56
2023/12/16 11:40:51;;;;;;;14.30;2.33;;;;;;;15.16;66.84;102995.06;8270385;28;20065;-56
2023/12/16 11:44:53;;;;;;;14.90;2.13;;;;;;;15.28;66.21;102983.28;8275535;28;20105;-56
2023/12/16 11:48:54;;;;;;;8.65;1.63;;;;;;;14.99;67.96;102981.78;8274414;28;20349;-56
2023/12/16 11:52:54;;;;;;;18.27;2.53;;;;;;;14.97;68.21;102989.19;8267613;28;20053;-57
2023/12/16 11:56:55;;;;;;;18.08;2.25;;;;;;;14.90;68.28;102968.81;8274517;28;20042;-55
2023/12/16 12:00:55;;;;;;;12.50;2.47;;;;;;;14.83;68.99;102970.25;8272629;28;20060;-56
2023/12/16 12:04:59;;;;;;;15.18;2.58;;;;;;;14.82;69.42;102957.59;8273142;28;20065;-57
2023/12/16 12:09:00;;;;;;;10.73;2.08;;;;;;;14.49;71.19;102959.94;8265218;28;20070;-57
2023/12/16 12:13:01;;;;;;;19.90;2.22;;;;;;;14.11;71.94;102958.94;8267464;28;20053;-58
2023/12/16 12:17:03;;;;;;;21.63;2.55;;;;;;;13.91;73.43;102967.59;8267521;28;20158;-57
2023/12/16 12:21:04;;;;;;;24.83;3.65;;;;;;;13.81;74.18;102969.16;8270827;28;20487;-56
2023/12/16 12:25:04;;;;;;;18.55;2.45;;;;;;;13.70;74.09;102966.28;8266331;28;20106;-55
2023/12/16 12:29:05;;;;;;;7.43;1.60;;;;;;;13.66;75.08;102967.44;8259692;28;20038;-56
2023/12/16 12:33:06;;;;;;;11.75;2.85;;;;;;;13.59;74.69;102966.13;8268004;28;20045;-55
2023/12/16 12:37:06;;;;;;;14.95;2.22;;;;;;;13.50;74.94;102955.84;8273130;28;20049;-57
2023/12/16 12:41:08;;;;;;;14.85;2.20;;;;;;;13.42;74.60;102960.91;8271092;28;20196;-56
2023/12/16 12:45:09;;;;;;;11.90;1.95;;;;;;;13.38;75.98;102956.63;8271402;28;20848;-56
2023/12/16 12:49:09;;;;;;;22.70;2.38;;;;;;;13.37;76.36;102954.91;8265964;28;20487;-57
2023/12/16 12:53:19;;;;;;;12.32;2.25;;;;;;;13.29;75.97;102951.78;8270258;28;20038;-55
2023/12/16 12:57:20;;;;;;;15.90;2.42;;;;;;;13.19;77.16;102946.09;8270343;28;20041;-55
2023/12/16 13:01:21;;;;;;;14.95;2.75;;;;;;;13.18;77.19;102948.91;8269184;28;20514;-57
2023/12/16 13:05:21;;;;;;;8.50;1.92;;;;;;;13.16;77.46;102951.72;8270108;28;20421;-57
2023/12/16 13:09:22;;;;;;;13.88;2.30;;;;;;;13.21;77.68;102944.13;8272692;28;20045;-57
2023/12/16 13:13:22;;;;;;;19.42;2.45;;;;;;;13.19;77.96;102951.53;8270138;28;20045;-57
2023/12/16 13:17:23;;;;;;;14.23;2.10;;;;;;;13.14;78.33;102936.47;8271393;28;20042;-57
2023/12/16 13:21:23;;;;;;;13.43;2.40;;;;;;;13.06;78.98;102927.97;8273803;28;20412;-57
2023/12/16 13:25:24;;;;;;;10.02;2.85;;;;;;;13.06;79.83;102917.97;8265815;28;20038;-56
2023/12/16 13:29:25;;;;;;;14.75;2.75;;;;;;;13.02;80.02;102916.41;8273282;28;20050;-55
2023/12/16 13:33:25;;;;;;;13.80;2.50;;;;;;;13.04;80.13;102909.03;8270577;28;20042;-56
2023/12/16 13:37:26;;;;;;;14.07;2.50;;;;;;;13.07;79.98;102913.41;8261264;28;20499;-55
2023/12/16 13:41:27;;;;;;;18.33;2.72;;;;;;;13.01;80.66;102913.78;8252600;28;20544;-55
2023/12/16 13:45:27;;;;;;;20.85;2.75;;;;;;;13.00;80.95;102902.06;8257851;28;20507;-55
2023/12/16 13:49:28;;;;;;;13.20;2.80;;;;;;;12.95;81.25;102908.72;8251239;28;20128;-56
2023/12/16 13:53:28;;;;;;;14.75;2.47;;;;;;;12.91;81.73;102899.91;8259544;28;20572;-55
2023/12/16 13:57:29;;;;;;;15.48;2.22;;;;;;;12.87;82.58;102916.50;8256764;28;20586;-55
2023/12/16 14:01:29;;;;;;;17.00;2.80;;;;;;;12.86;82.64;102909.28;8269996;28;20516;-55
2023/12/16 14:05:30;;;;;;;10.55;2.35;;;;;;;12.84;83.38;102912.09;8269367;28;20046;-55
2023/12/16 14:09:30;;;;;;;16.45;2.85;;;;;;;12.82;83.35;102907.75;8265868;28;20046;-55
2023/12/16 14:13:31;;;;;;;16.75;2.45;;;;;;;12.78;83.23;102895.34;8266032;28;20041;-55
2023/12/16 14:17:31;;;;;;;18.17;2.67;;;;;;;12.77;83.42;102894.47;8268903;28;20126;-55
2023/12/16 14:21:32;;;;;;;30.40;8.18;;;;;;;12.74;84.27;102888.34;8266148;28;20050;-56
2023/12/16 14:25:33;;;;;;;12.32;2.60;;;;;;;12.71;84.63;102883.09;8280483;28;20036;-56
2023/12/16 14:29:34;;;;;;;14.05;3.05;;;;;;;12.71;84.23;102872.25;8269649;28;20108;-54
2023/12/16 14:33:34;;;;;;;14.75;2.60;;;;;;;12.70;84.70;102876.81;8262653;28;20133;-54
2023/12/16 14:37:35;;;;;;;19.17;2.60;;;;;;;12.66;84.91;102877.13;8275308;28;20050;-54
2023/12/16 14:41:36;;;;;;;13.68;2.28;;;;;;;12.63;85.19;102874.59;8269431;28;20045;-57
2023/12/16 14:45:36;;;;;;;13.20;2.22;;;;;;;12.58;85.97;102860.44;8269005;28;20072;-60
2023/12/16 14:49:37;;;;;;;13.98;3.42;;;;;;;12.53;86.63;102862.56;8272627;28;20042;-55
2023/12/16 14:53:37;;;;;;;13.40;2.70;;;;;;;12.50;87.19;102865.47;8270917;28;20030;-56
2023/12/16 14:57:38;;;;;;;10.48;3.03;;;;;;;12.50;86.89;102868.19;8271681;28;20042;-56
2023/12/16 15:01:38;;;;;;;10.90;2.55;;;;;;;12.47;86.86;102862.97;8269216;28;20406;-58
2023/12/16 15:05:40;;;;;;;11.85;2.75;;;;;;;12.41;87.10;102875.03;8276253;28;20438;-57
2023/12/16 15:09:42;;;;;;;11.73;2.65;;;;;;;12.41;87.66;102864.19;8266662;28;20045;-56
2023/12/16 15:13:42;;;;;;;12.35;3.30;;;;;;;12.39;87.41;102860.72;8272564;28;20052;-57
2023/12/16 15:17:43;;;;;;;22.65;5.07;;;;;;;12.39;87.74;102871.56;8272829;28;20034;-57
2023/12/16 15:21:43;;;;;;;28.95;7.00;;;;;;;12.33;87.98;102865.63;8273128;28;20072;-56
2023/12/16 15:25:44;;;;;;;15.73;3.35;;;;;;;12.29;88.50;102861.38;8266015;28;20427;-57
2023/12/16 15:29:44;;;;;;;8.57;3.17;;;;;;;12.27;88.76;102868.72;8273614;28;20042;-55
2023/12/16 15:33:45;;;;;;;16.58;3.22;;;;;;;12.22;89.22;102862.69;8264406;28;20049;-56
2023/12/16 15:37:45;;;;;;;12.45;2.58;;;;;;;12.22;89.10;102868.13;8262895;28;20120;-56
2023/12/16 15:41:47;;;;;;;12.35;2.20;;;;;;;12.20;89.10;102870.06;8268121;28;20049;-56
2023/12/16 15:45:47;;;;;;;8.68;2.10;;;;;;;12.16;89.60;102874.81;8246940;28;20445;-56
2023/12/16 15:49:48;;;;;;;7.60;2.20;;;;;;;12.14;90.22;102876.72;8263136;28;20073;-56
2023/12/16 15:53:48;;;;;;;6.15;2.38;;;;;;;12.15;89.37;102869.47;8255536;28;20129;-55
2023/12/16 15:57:49;;;;;;;13.35;3.28;;;;;;;12.13;89.76;102868.72;8250232;28;20046;-55
2023/12/16 16:01:49;;;;;;;16.83;5.07;;;;;;;12.09;90.04;102872.56;8260999;28;20046;-54
2023/12/16 16:05:50;;;;;;;10.93;2.00;;;;;;;12.05;90.22;102862.88;8262044;28;20137;-56
2023/12/16 16:09:52;;;;;;;16.88;2.65;;;;;;;12.04;90.00;102863.84;8259483;28;20050;-57
2023/12/16 16:13:52;;;;;;;10.90;2.55;;;;;;;12.02;90.33;102865.78;8266265;28;20076;-55
2023/12/16 16:17:53;;;;;;;12.90;2.85;;;;;;;12.00;90.38;102856.84;8270745;28;20046;-56
2023/12/16 16:21:54;;;;;;;6.40;1.95;;;;;;;11.99;90.43;102855.09;8269871;28;20050;-56
2023/12/16 16:25:54;;;;;;;3.00;1.50;;;;;;;11.95;90.45;102853.56;8268861;28;20042;-56
2023/12/16 16:29:54;;;;;;;8.93;2.13;;;;;;;11.96;90.68;102853.47;8269522;28;20046;-56
2023/12/16 16:33:56;;;;;;;18.00;2.38;;;;;;;11.93;90.15;102845.50;8270044;28;20054;-56
2023/12/16 16:37:56;;;;;;;7.32;1.88;;;;;;;11.93;90.05;102846.38;8263198;28;20039;-55
2023/12/16 16:41:57;;;;;;;9.48;2.30;;;;;;;11.99;89.69;102852.41;8259486;28;20087;-58
2023/12/16 16:45:57;;;;;;;8.68;1.98;;;;;;;11.93;90.59;102843.66;8269543;28;20121;-55
2023/12/16 16:49:58;;;;;;;5.95;2.17;;;;;;;11.93;89.83;102851.78;8270821;28;20031;-55
2023/12/16 16:53:58;;;;;;;10.57;2.55;;;;;;;11.89;90.69;102866.50;8268753;28;20042;-55
2023/12/16 16:57:59;;;;;;;7.97;2.03;;;;;;;11.93;90.50;102877.16;8271188;28;20440;-56
2023/12/16 17:02:00;;;;;;;8.40;2.30;;;;;;;11.95;89.90;102873.38;8269258;28;20044;-56
2023/12/16 17:06:00;;;;;;;4.57;2.30;;;;;;;11.95;90.10;102877.97;8267924;28;20046;-56
2023/12/16 17:10:01;;;;;;;9.98;3.20;;;;;;;11.86;90.25;102887.50;8267266;28;20409;-56
2023/12/16 17:14:01;;;;;;;6.20;2.55;;;;;;;11.90;90.54;102908.91;8269125;28;20049;-57
2023/12/16 17:18:03;;;;;;;9.20;2.65;;;;;;;11.90;90.04;102905.34;8260518;28;20042;-56
2023/12/16 17:22:04;;;;;;;7.43;3.13;;;;;;;11.89;89.68;102907.16;8266754;28;20066;-56
2023/12/16 17:26:05;;;;;;;11.55;4.15;;;;;;;11.83;90.60;102915.66;8269169;28;20041;-55
2023/12/16 17:30:06;;;;;;;12.38;4.00;;;;;;;11.80;90.70;102915.84;8262879;28;20042;-56
2023/12/16 17:34:08;;;;;;;13.13;3.88;;;;;;;11.83;90.94;102931.03;8250950;28;20408;-55
2023/12/16 17:38:08;;;;;;;9.57;3.30;;;;;;;11.78;91.45;102938.59;8266309;28;20057;-55
2023/12/16 17:42:09;;;;;;;9.63;3.22;;;;;;;11.78;92.17;102922.31;8263572;28;20042;-57
2023/12/16 17:46:10;;;;;;;8.18;3.00;;;;;;;11.73;92.32;102919.88;8262636;28;20081;-55
2023/12/16 17:50:10;;;;;;;7.90;3.25;;;;;;;11.74;92.70;102905.34;8265463;28;20046;-56
2023/12/16 17:54:10;;;;;;;7.90;3.28;;;;;;;11.73;92.46;102910.88;8267583;28;20042;-57
2023/12/16 17:58:11;;;;;;;7.60;3.15;;;;;;;11.71;92.46;102927.22;8272017;28;20420;-58
2023/12/16 18:02:12;;;;;;;9.85;3.72;;;;;;;11.71;92.64;102929.94;8260214;28;20030;-56
2023/12/16 18:06:13;;;;;;;12.13;3.55;;;;;;;11.67;92.94;102924.78;8268233;28;20097;-56
2023/12/16 18:10:14;;;;;;;7.95;2.70;;;;;;;11.70;92.60;102914.63;8266790;28;20125;-55
2023/12/16 18:14:15;;;;;;;7.95;2.67;;;;;;;11.71;92.75;102913.66;8266872;28;20128;-55
2023/12/16 18:18:15;;;;;;;6.95;2.53;;;;;;;11.72;92.23;102907.28;8270302;28;20246;-55
2023/12/16 18:22:16;;;;;;;6.85;2.95;;;;;;;11.71;92.48;102916.38;8262387;28;20046;-56
2023/12/16 18:26:17;;;;;;;6.80;2.97;;;;;;;11.66;92.10;102909.47;8268784;28;20046;-54
2023/12/16 18:30:18;;;;;;;7.32;3.03;;;;;;;11.67;91.97;102925.66;8266939;28;20038;-56
2023/12/16 18:34:18;;;;;;;9.95;4.18;;;;;;;11.62;92.18;102911.50;8267398;28;20030;-56